sensor_id;sensor_type;location;lat;lon;timestamp;P1;durP1;ratioP1;P2;durP2;ratioP2
73816;SDS011;62146;53.232;-1.304;2023-03-14T00:01:26;2.63;;;1.00;;
73816;SDS011;62146;53.232;-1.304;2023-03-14T00:03:52;2.53;;;1.02;;
73816;SDS011;62146;53.232;-1.304;2023-03-14T00:06:19;2.43;;;0.80;;
73816;SDS011;62146;53.232;-1.304;2023-03-14T00:08:46;2.95;;;0.80;;
73816;SDS011;62146;53.232;-1.304;2023-03-14T00:11:14;3.72;;;0.90;;
73816;SDS011;62146;53.232;-1.304;2023-03-14T00:13:42;2.55;;;0.90;;
73816;SDS011;62146;53.232;-1.304;2023-03-14T00:16:10;3.90;;;1.10;;
73816;SDS011;62146;53.232;-1.304;2023-03-14T00:18:38;2.30;;;0.83;;
73816;SDS011;62146;53.232;-1.304;2023-03-14T00:21:06;2.75;;;0.90;;
73816;SDS011;62146;53.232;-1.304;2023-03-14T00:23:35;2.70;;;0.90;;
73816;SDS011;62146;53.232;-1.304;2023-03-14T00:26:05;2.28;;;0.80;;
73816;SDS011;62146;53.232;-1.304;2023-03-14T00:28:34;2.60;;;0.80;;
73816;SDS011;62146;53.232;-1.304;2023-03-14T00:31:05;2.63;;;0.80;;
73816;SDS011;62146;53.232;-1.304;2023-03-14T00:33:33;2.15;;;0.80;;
73816;SDS011;62146;53.232;-1.304;2023-03-14T00:36:01;2.10;;;0.90;;
73816;SDS011;62146;53.232;-1.304;2023-03-14T00:38:32;2.33;;;0.90;;
73816;SDS011;62146;53.232;-1.304;2023-03-14T00:40:59;1.90;;;0.77;;
73816;SDS011;62146;53.232;-1.304;2023-03-14T00:43:28;2.40;;;0.80;;
73816;SDS011;62146;53.232;-1.304;2023-03-14T00:45:55;2.65;;;0.80;;
73816;SDS011;62146;53.232;-1.304;2023-03-14T00:48:23;3.35;;;0.80;;
73816;SDS011;62146;53.232;-1.304;2023-03-14T00:50:49;2.13;;;0.60;;
73816;SDS011;62146;53.232;-1.304;2023-03-14T00:53:16;2.30;;;0.88;;
73816;SDS011;62146;53.232;-1.304;2023-03-14T00:55:43;2.53;;;0.90;;
73816;SDS011;62146;53.232;-1.304;2023-03-14T00:58:11;2.25;;;0.80;;
73816;SDS011;62146;53.232;-1.304;2023-03-14T01:00:38;2.75;;;0.80;;
73816;SDS011;62146;53.232;-1.304;2023-03-14T01:03:06;2.25;;;0.70;;
73816;SDS011;62146;53.232;-1.304;2023-03-14T01:05:34;2.42;;;0.75;;
73816;SDS011;62146;53.232;-1.304;2023-03-14T01:08:01;1.80;;;0.70;;
73816;SDS011;62146;53.232;-1.304;2023-03-14T01:10:28;2.33;;;0.70;;
73816;SDS011;62146;53.232;-1.304;2023-03-14T01:12:55;2.15;;;0.70;;
73816;SDS011;62146;53.232;-1.304;2023-03-14T01:15:22;2.53;;;0.80;;
73816;SDS011;62146;53.232;-1.304;2023-03-14T01:17:48;2.25;;;0.80;;
73816;SDS011;62146;53.232;-1.304;2023-03-14T01:20:15;2.13;;;0.70;;
73816;SDS011;62146;53.232;-1.304;2023-03-14T01:22:43;2.45;;;1.10;;
73816;SDS011;62146;53.232;-1.304;2023-03-14T01:25:11;2.03;;;0.90;;
73816;SDS011;62146;53.232;-1.304;2023-03-14T01:27:40;2.08;;;0.70;;
73816;SDS011;62146;53.232;-1.304;2023-03-14T01:32:55;2.37;;;0.67;;
73816;SDS011;62146;53.232;-1.304;2023-03-14T01:35:22;2.53;;;0.90;;
73816;SDS011;62146;53.232;-1.304;2023-03-14T01:37:48;4.28;;;0.98;;
73816;SDS011;62146;53.232;-1.304;2023-03-14T01:40:15;2.75;;;0.80;;
73816;SDS011;62146;53.232;-1.304;2023-03-14T01:42:47;1.90;;;0.80;;
73816;SDS011;62146;53.232;-1.304;2023-03-14T01:48:26;3.05;;;1.00;;
73816;SDS011;62146;53.232;-1.304;2023-03-14T01:50:57;3.08;;;1.10;;
73816;SDS011;62146;53.232;-1.304;2023-03-14T01:53:27;2.35;;;0.90;;
73816;SDS011;62146;53.232;-1.304;2023-03-14T01:55:54;3.53;;;1.10;;
73816;SDS011;62146;53.232;-1.304;2023-03-14T01:58:23;3.33;;;1.00;;
73816;SDS011;62146;53.232;-1.304;2023-03-14T02:00:53;2.88;;;1.00;;
73816;SDS011;62146;53.232;-1.304;2023-03-14T02:03:23;3.00;;;1.00;;
73816;SDS011;62146;53.232;-1.304;2023-03-14T02:05:51;2.70;;;0.90;;
73816;SDS011;62146;53.232;-1.304;2023-03-14T02:08:24;4.43;;;1.05;;
73816;SDS011;62146;53.232;-1.304;2023-03-14T02:10:50;2.73;;;0.80;;
73816;SDS011;62146;53.232;-1.304;2023-03-14T02:13:18;3.85;;;0.98;;
73816;SDS011;62146;53.232;-1.304;2023-03-14T02:15:46;3.80;;;0.90;;
73816;SDS011;62146;53.232;-1.304;2023-03-14T02:18:14;3.13;;;0.90;;
73816;SDS011;62146;53.232;-1.304;2023-03-14T02:20:45;5.05;;;1.00;;
73816;SDS011;62146;53.232;-1.304;2023-03-14T02:26:40;2.50;;;0.80;;
73816;SDS011;62146;53.232;-1.304;2023-03-14T02:29:29;6.40;;;0.85;;
73816;SDS011;62146;53.232;-1.304;2023-03-14T02:31:58;4.18;;;0.80;;
73816;SDS011;62146;53.232;-1.304;2023-03-14T02:34:24;4.60;;;0.95;;
73816;SDS011;62146;53.232;-1.304;2023-03-14T02:36:52;3.33;;;0.77;;
73816;SDS011;62146;53.232;-1.304;2023-03-14T02:39:31;3.67;;;0.70;;
73816;SDS011;62146;53.232;-1.304;2023-03-14T02:42:03;3.63;;;0.65;;
73816;SDS011;62146;53.232;-1.304;2023-03-14T02:44:30;4.30;;;0.80;;
73816;SDS011;62146;53.232;-1.304;2023-03-14T02:46:56;2.55;;;0.82;;
73816;SDS011;62146;53.232;-1.304;2023-03-14T02:49:23;3.30;;;0.90;;
73816;SDS011;62146;53.232;-1.304;2023-03-14T02:51:53;2.78;;;0.70;;
73816;SDS011;62146;53.232;-1.304;2023-03-14T02:54:19;4.50;;;0.70;;
73816;SDS011;62146;53.232;-1.304;2023-03-14T02:56:46;2.40;;;0.75;;
73816;SDS011;62146;53.232;-1.304;2023-03-14T02:59:13;3.03;;;0.90;;
73816;SDS011;62146;53.232;-1.304;2023-03-14T03:01:40;3.07;;;1.00;;
73816;SDS011;62146;53.232;-1.304;2023-03-14T03:04:06;2.13;;;0.75;;
73816;SDS011;62146;53.232;-1.304;2023-03-14T03:06:33;2.83;;;1.00;;
73816;SDS011;62146;53.232;-1.304;2023-03-14T03:08:59;4.53;;;0.93;;
73816;SDS011;62146;53.232;-1.304;2023-03-14T03:11:26;4.03;;;1.00;;
73816;SDS011;62146;53.232;-1.304;2023-03-14T03:13:53;3.77;;;0.83;;
73816;SDS011;62146;53.232;-1.304;2023-03-14T03:16:19;3.45;;;1.00;;
73816;SDS011;62146;53.232;-1.304;2023-03-14T03:18:46;5.15;;;1.10;;
73816;SDS011;62146;53.232;-1.304;2023-03-14T03:21:12;4.13;;;1.02;;
73816;SDS011;62146;53.232;-1.304;2023-03-14T03:23:39;3.67;;;0.80;;
73816;SDS011;62146;53.232;-1.304;2023-03-14T03:26:06;2.97;;;0.90;;
73816;SDS011;62146;53.232;-1.304;2023-03-14T03:28:32;3.67;;;1.00;;
73816;SDS011;62146;53.232;-1.304;2023-03-14T03:30:59;5.32;;;1.10;;
73816;SDS011;62146;53.232;-1.304;2023-03-14T03:33:33;4.45;;;1.10;;
73816;SDS011;62146;53.232;-1.304;2023-03-14T03:35:59;3.53;;;0.90;;
73816;SDS011;62146;53.232;-1.304;2023-03-14T03:38:26;5.93;;;0.93;;
73816;SDS011;62146;53.232;-1.304;2023-03-14T03:40:53;4.50;;;1.00;;
73816;SDS011;62146;53.232;-1.304;2023-03-14T03:43:19;5.32;;;1.15;;
73816;SDS011;62146;53.232;-1.304;2023-03-14T03:45:46;4.53;;;1.10;;
73816;SDS011;62146;53.232;-1.304;2023-03-14T03:48:12;4.88;;;1.10;;
73816;SDS011;62146;53.232;-1.304;2023-03-14T03:50:43;4.30;;;1.20;;
73816;SDS011;62146;53.232;-1.304;2023-03-14T03:53:11;3.50;;;1.08;;
73816;SDS011;62146;53.232;-1.304;2023-03-14T03:55:41;3.25;;;0.90;;
73816;SDS011;62146;53.232;-1.304;2023-03-14T03:58:08;4.57;;;1.20;;
73816;SDS011;62146;53.232;-1.304;2023-03-14T04:00:35;3.63;;;1.13;;
73816;SDS011;62146;53.232;-1.304;2023-03-14T04:03:01;8.33;;;1.33;;
73816;SDS011;62146;53.232;-1.304;2023-03-14T04:05:28;4.55;;;0.90;;
73816;SDS011;62146;53.232;-1.304;2023-03-14T04:07:54;3.97;;;1.10;;
73816;SDS011;62146;53.232;-1.304;2023-03-14T04:10:21;4.20;;;1.00;;
73816;SDS011;62146;53.232;-1.304;2023-03-14T04:12:48;4.70;;;1.10;;
73816;SDS011;62146;53.232;-1.304;2023-03-14T04:15:14;3.53;;;1.00;;
73816;SDS011;62146;53.232;-1.304;2023-03-14T04:17:41;3.90;;;1.02;;
73816;SDS011;62146;53.232;-1.304;2023-03-14T04:20:07;3.88;;;0.85;;
73816;SDS011;62146;53.232;-1.304;2023-03-14T04:22:37;4.68;;;1.10;;
73816;SDS011;62146;53.232;-1.304;2023-03-14T04:25:10;5.82;;;0.82;;
73816;SDS011;62146;53.232;-1.304;2023-03-14T04:27:37;4.90;;;1.03;;
73816;SDS011;62146;53.232;-1.304;2023-03-14T04:30:04;3.75;;;1.02;;
73816;SDS011;62146;53.232;-1.304;2023-03-14T04:32:30;7.45;;;1.02;;
73816;SDS011;62146;53.232;-1.304;2023-03-14T04:34:57;4.82;;;1.40;;
73816;SDS011;62146;53.232;-1.304;2023-03-14T04:37:23;4.47;;;1.20;;
73816;SDS011;62146;53.232;-1.304;2023-03-14T04:39:50;3.10;;;0.93;;
73816;SDS011;62146;53.232;-1.304;2023-03-14T04:42:17;7.93;;;1.10;;
73816;SDS011;62146;53.232;-1.304;2023-03-14T04:44:44;2.42;;;0.75;;
73816;SDS011;62146;53.232;-1.304;2023-03-14T04:47:10;7.10;;;1.20;;
73816;SDS011;62146;53.232;-1.304;2023-03-14T04:49:37;4.38;;;1.10;;
73816;SDS011;62146;53.232;-1.304;2023-03-14T04:52:03;5.70;;;1.20;;
73816;SDS011;62146;53.232;-1.304;2023-03-14T04:54:30;5.65;;;0.93;;
73816;SDS011;62146;53.232;-1.304;2023-03-14T04:56:57;7.50;;;1.20;;
73816;SDS011;62146;53.232;-1.304;2023-03-14T04:59:23;9.23;;;2.03;;
73816;SDS011;62146;53.232;-1.304;2023-03-14T05:01:50;8.20;;;1.25;;
73816;SDS011;62146;53.232;-1.304;2023-03-14T05:04:16;7.47;;;1.20;;
73816;SDS011;62146;53.232;-1.304;2023-03-14T05:06:45;3.67;;;1.13;;
73816;SDS011;62146;53.232;-1.304;2023-03-14T05:09:12;6.07;;;1.13;;
73816;SDS011;62146;53.232;-1.304;2023-03-14T05:11:38;5.53;;;1.05;;
73816;SDS011;62146;53.232;-1.304;2023-03-14T05:14:05;8.05;;;1.45;;
73816;SDS011;62146;53.232;-1.304;2023-03-14T05:16:31;8.47;;;1.30;;
73816;SDS011;62146;53.232;-1.304;2023-03-14T05:18:58;8.18;;;1.38;;
73816;SDS011;62146;53.232;-1.304;2023-03-14T05:21:25;10.93;;;1.55;;
73816;SDS011;62146;53.232;-1.304;2023-03-14T05:23:52;4.57;;;1.00;;
73816;SDS011;62146;53.232;-1.304;2023-03-14T05:26:18;5.70;;;1.20;;
73816;SDS011;62146;53.232;-1.304;2023-03-14T05:28:45;7.83;;;1.17;;
73816;SDS011;62146;53.232;-1.304;2023-03-14T05:31:12;5.07;;;0.98;;
73816;SDS011;62146;53.232;-1.304;2023-03-14T05:33:39;9.10;;;1.23;;
73816;SDS011;62146;53.232;-1.304;2023-03-14T05:36:06;8.00;;;1.20;;
73816;SDS011;62146;53.232;-1.304;2023-03-14T05:38:33;9.45;;;1.40;;
73816;SDS011;62146;53.232;-1.304;2023-03-14T05:40:59;6.23;;;1.53;;
73816;SDS011;62146;53.232;-1.304;2023-03-14T05:43:26;7.85;;;1.02;;
73816;SDS011;62146;53.232;-1.304;2023-03-14T05:45:52;9.80;;;1.73;;
73816;SDS011;62146;53.232;-1.304;2023-03-14T05:48:19;7.07;;;1.55;;
73816;SDS011;62146;53.232;-1.304;2023-03-14T05:50:47;9.02;;;1.20;;
73816;SDS011;62146;53.232;-1.304;2023-03-14T05:53:14;7.70;;;1.40;;
73816;SDS011;62146;53.232;-1.304;2023-03-14T05:55:41;10.55;;;1.30;;
73816;SDS011;62146;53.232;-1.304;2023-03-14T05:58:07;5.50;;;1.50;;
73816;SDS011;62146;53.232;-1.304;2023-03-14T06:00:34;5.80;;;1.30;;
73816;SDS011;62146;53.232;-1.304;2023-03-14T06:03:00;5.28;;;1.30;;
73816;SDS011;62146;53.232;-1.304;2023-03-14T06:05:27;8.43;;;1.30;;
73816;SDS011;62146;53.232;-1.304;2023-03-14T06:07:53;9.82;;;1.58;;
73816;SDS011;62146;53.232;-1.304;2023-03-14T06:10:20;7.30;;;1.33;;
73816;SDS011;62146;53.232;-1.304;2023-03-14T06:12:46;7.82;;;1.17;;
73816;SDS011;62146;53.232;-1.304;2023-03-14T06:15:13;7.45;;;1.48;;
73816;SDS011;62146;53.232;-1.304;2023-03-14T06:17:39;5.47;;;1.17;;
73816;SDS011;62146;53.232;-1.304;2023-03-14T06:20:06;11.85;;;1.58;;
73816;SDS011;62146;53.232;-1.304;2023-03-14T06:22:34;6.28;;;1.30;;
73816;SDS011;62146;53.232;-1.304;2023-03-14T06:25:00;8.82;;;1.40;;
73816;SDS011;62146;53.232;-1.304;2023-03-14T06:27:27;7.93;;;1.15;;
73816;SDS011;62146;53.232;-1.304;2023-03-14T06:29:54;7.33;;;1.40;;
73816;SDS011;62146;53.232;-1.304;2023-03-14T06:32:23;7.50;;;1.30;;
73816;SDS011;62146;53.232;-1.304;2023-03-14T06:34:50;6.10;;;1.52;;
73816;SDS011;62146;53.232;-1.304;2023-03-14T06:37:17;9.27;;;1.25;;
73816;SDS011;62146;53.232;-1.304;2023-03-14T06:39:46;6.40;;;1.33;;
73816;SDS011;62146;53.232;-1.304;2023-03-14T06:42:12;8.37;;;1.20;;
73816;SDS011;62146;53.232;-1.304;2023-03-14T06:44:39;8.60;;;1.40;;
73816;SDS011;62146;53.232;-1.304;2023-03-14T06:47:06;5.55;;;1.13;;
73816;SDS011;62146;53.232;-1.304;2023-03-14T06:49:32;9.35;;;1.30;;
73816;SDS011;62146;53.232;-1.304;2023-03-14T06:51:59;8.00;;;1.10;;
73816;SDS011;62146;53.232;-1.304;2023-03-14T06:54:26;10.63;;;1.43;;
73816;SDS011;62146;53.232;-1.304;2023-03-14T06:56:52;7.80;;;1.48;;
73816;SDS011;62146;53.232;-1.304;2023-03-14T06:59:19;8.40;;;1.27;;
73816;SDS011;62146;53.232;-1.304;2023-03-14T07:01:46;8.63;;;1.50;;
73816;SDS011;62146;53.232;-1.304;2023-03-14T07:04:14;8.77;;;1.30;;
73816;SDS011;62146;53.232;-1.304;2023-03-14T07:06:40;10.23;;;1.40;;
73816;SDS011;62146;53.232;-1.304;2023-03-14T07:09:11;7.85;;;1.38;;
73816;SDS011;62146;53.232;-1.304;2023-03-14T07:11:38;9.05;;;1.42;;
73816;SDS011;62146;53.232;-1.304;2023-03-14T07:14:05;6.25;;;1.30;;
73816;SDS011;62146;53.232;-1.304;2023-03-14T07:16:31;9.70;;;1.50;;
73816;SDS011;62146;53.232;-1.304;2023-03-14T07:18:59;7.03;;;1.23;;
73816;SDS011;62146;53.232;-1.304;2023-03-14T07:21:27;11.80;;;1.40;;
73816;SDS011;62146;53.232;-1.304;2023-03-14T07:23:54;7.68;;;1.30;;
73816;SDS011;62146;53.232;-1.304;2023-03-14T07:26:21;8.18;;;1.48;;
73816;SDS011;62146;53.232;-1.304;2023-03-14T07:28:47;5.57;;;1.50;;
73816;SDS011;62146;53.232;-1.304;2023-03-14T07:31:14;5.57;;;1.00;;
73816;SDS011;62146;53.232;-1.304;2023-03-14T07:33:40;7.78;;;1.00;;
73816;SDS011;62146;53.232;-1.304;2023-03-14T07:36:07;10.45;;;1.20;;
73816;SDS011;62146;53.232;-1.304;2023-03-14T07:38:34;7.15;;;1.13;;
73816;SDS011;62146;53.232;-1.304;2023-03-14T07:41:01;7.85;;;1.50;;
73816;SDS011;62146;53.232;-1.304;2023-03-14T07:43:29;11.23;;;1.20;;
73816;SDS011;62146;53.232;-1.304;2023-03-14T07:45:56;6.13;;;1.45;;
73816;SDS011;62146;53.232;-1.304;2023-03-14T07:48:25;6.93;;;1.10;;
73816;SDS011;62146;53.232;-1.304;2023-03-14T07:50:53;6.32;;;1.05;;
73816;SDS011;62146;53.232;-1.304;2023-03-14T07:53:21;7.28;;;1.33;;
73816;SDS011;62146;53.232;-1.304;2023-03-14T07:55:48;8.83;;;1.10;;
73816;SDS011;62146;53.232;-1.304;2023-03-14T07:58:18;6.80;;;1.20;;
73816;SDS011;62146;53.232;-1.304;2023-03-14T08:00:45;10.00;;;1.50;;
73816;SDS011;62146;53.232;-1.304;2023-03-14T08:03:11;9.73;;;1.40;;
73816;SDS011;62146;53.232;-1.304;2023-03-14T08:05:38;5.68;;;1.42;;
73816;SDS011;62146;53.232;-1.304;2023-03-14T08:08:06;6.83;;;1.43;;
73816;SDS011;62146;53.232;-1.304;2023-03-14T08:10:32;8.10;;;1.38;;
73816;SDS011;62146;53.232;-1.304;2023-03-14T08:12:59;7.28;;;1.27;;
73816;SDS011;62146;53.232;-1.304;2023-03-14T08:15:28;5.88;;;1.40;;
73816;SDS011;62146;53.232;-1.304;2023-03-14T08:17:55;7.03;;;1.58;;
73816;SDS011;62146;53.232;-1.304;2023-03-14T08:20:23;8.63;;;0.93;;
73816;SDS011;62146;53.232;-1.304;2023-03-14T08:22:51;10.05;;;1.60;;
73816;SDS011;62146;53.232;-1.304;2023-03-14T08:25:19;8.38;;;1.70;;
73816;SDS011;62146;53.232;-1.304;2023-03-14T08:27:45;6.35;;;1.48;;
73816;SDS011;62146;53.232;-1.304;2023-03-14T08:30:13;8.38;;;1.42;;
73816;SDS011;62146;53.232;-1.304;2023-03-14T08:32:41;8.73;;;1.27;;
73816;SDS011;62146;53.232;-1.304;2023-03-14T08:35:08;6.10;;;1.20;;
73816;SDS011;62146;53.232;-1.304;2023-03-14T08:37:36;5.35;;;1.20;;
73816;SDS011;62146;53.232;-1.304;2023-03-14T08:40:03;12.05;;;1.52;;
73816;SDS011;62146;53.232;-1.304;2023-03-14T08:42:35;6.80;;;1.52;;
73816;SDS011;62146;53.232;-1.304;2023-03-14T08:45:02;6.17;;;1.50;;
73816;SDS011;62146;53.232;-1.304;2023-03-14T08:47:30;7.32;;;1.40;;
73816;SDS011;62146;53.232;-1.304;2023-03-14T08:49:56;7.78;;;1.30;;
73816;SDS011;62146;53.232;-1.304;2023-03-14T08:52:23;6.82;;;1.40;;
73816;SDS011;62146;53.232;-1.304;2023-03-14T08:54:49;7.40;;;1.30;;
73816;SDS011;62146;53.232;-1.304;2023-03-14T08:57:16;9.60;;;1.53;;
73816;SDS011;62146;53.232;-1.304;2023-03-14T08:59:43;11.27;;;1.40;;
73816;SDS011;62146;53.232;-1.304;2023-03-14T09:02:12;7.55;;;1.55;;
73816;SDS011;62146;53.232;-1.304;2023-03-14T09:04:39;8.18;;;1.52;;
73816;SDS011;62146;53.232;-1.304;2023-03-14T09:07:06;10.02;;;1.35;;
73816;SDS011;62146;53.232;-1.304;2023-03-14T09:09:32;7.27;;;1.43;;
73816;SDS011;62146;53.232;-1.304;2023-03-14T09:11:59;9.77;;;1.60;;
73816;SDS011;62146;53.232;-1.304;2023-03-14T09:14:25;4.75;;;1.27;;
73816;SDS011;62146;53.232;-1.304;2023-03-14T09:16:52;6.80;;;1.30;;
73816;SDS011;62146;53.232;-1.304;2023-03-14T09:19:19;8.18;;;1.38;;
73816;SDS011;62146;53.232;-1.304;2023-03-14T09:21:45;8.13;;;2.00;;
73816;SDS011;62146;53.232;-1.304;2023-03-14T09:24:12;8.00;;;1.35;;
73816;SDS011;62146;53.232;-1.304;2023-03-14T09:26:38;8.60;;;1.30;;
73816;SDS011;62146;53.232;-1.304;2023-03-14T09:29:05;7.85;;;1.38;;
73816;SDS011;62146;53.232;-1.304;2023-03-14T09:31:31;5.53;;;1.25;;
73816;SDS011;62146;53.232;-1.304;2023-03-14T09:33:58;7.53;;;1.40;;
73816;SDS011;62146;53.232;-1.304;2023-03-14T09:36:25;7.60;;;1.40;;
73816;SDS011;62146;53.232;-1.304;2023-03-14T09:38:51;5.88;;;1.00;;
73816;SDS011;62146;53.232;-1.304;2023-03-14T09:41:22;7.15;;;1.27;;
73816;SDS011;62146;53.232;-1.304;2023-03-14T09:43:56;6.30;;;1.13;;
73816;SDS011;62146;53.232;-1.304;2023-03-14T09:46:46;6.10;;;1.27;;
73816;SDS011;62146;53.232;-1.304;2023-03-14T09:51:44;3.60;;;0.82;;
73816;SDS011;62146;53.232;-1.304;2023-03-14T09:54:18;8.10;;;1.40;;
73816;SDS011;62146;53.232;-1.304;2023-03-14T09:57:00;6.80;;;1.50;;
73816;SDS011;62146;53.232;-1.304;2023-03-14T09:59:28;5.57;;;0.97;;
73816;SDS011;62146;53.232;-1.304;2023-03-14T10:01:58;8.77;;;2.03;;
73816;SDS011;62146;53.232;-1.304;2023-03-14T10:04:27;8.32;;;1.30;;
73816;SDS011;62146;53.232;-1.304;2023-03-14T10:06:56;6.32;;;0.95;;
73816;SDS011;62146;53.232;-1.304;2023-03-14T10:09:23;5.97;;;1.25;;
73816;SDS011;62146;53.232;-1.304;2023-03-14T10:11:55;8.97;;;1.40;;
73816;SDS011;62146;53.232;-1.304;2023-03-14T10:14:30;5.82;;;1.30;;
73816;SDS011;62146;53.232;-1.304;2023-03-14T10:17:06;8.05;;;1.50;;
73816;SDS011;62146;53.232;-1.304;2023-03-14T10:19:36;6.53;;;1.40;;
73816;SDS011;62146;53.232;-1.304;2023-03-14T10:22:04;6.55;;;1.45;;
73816;SDS011;62146;53.232;-1.304;2023-03-14T10:24:33;8.20;;;1.17;;
73816;SDS011;62146;53.232;-1.304;2023-03-14T10:27:03;5.72;;;1.38;;
73816;SDS011;62146;53.232;-1.304;2023-03-14T10:29:32;6.35;;;1.35;;
73816;SDS011;62146;53.232;-1.304;2023-03-14T10:32:01;5.97;;;1.67;;
73816;SDS011;62146;53.232;-1.304;2023-03-14T10:34:35;6.95;;;1.65;;
73816;SDS011;62146;53.232;-1.304;2023-03-14T10:37:07;8.03;;;1.50;;
73816;SDS011;62146;53.232;-1.304;2023-03-14T10:39:58;8.82;;;1.65;;
73816;SDS011;62146;53.232;-1.304;2023-03-14T10:42:32;6.88;;;1.60;;
73816;SDS011;62146;53.232;-1.304;2023-03-14T10:45:02;11.60;;;1.90;;
73816;SDS011;62146;53.232;-1.304;2023-03-14T10:47:32;8.40;;;1.83;;
73816;SDS011;62146;53.232;-1.304;2023-03-14T10:50:19;7.90;;;1.40;;
73816;SDS011;62146;53.232;-1.304;2023-03-14T10:52:56;4.57;;;1.38;;
73816;SDS011;62146;53.232;-1.304;2023-03-14T10:55:28;7.35;;;1.70;;
73816;SDS011;62146;53.232;-1.304;2023-03-14T10:58:28;7.65;;;1.73;;
73816;SDS011;62146;53.232;-1.304;2023-03-14T11:01:00;6.90;;;1.73;;
73816;SDS011;62146;53.232;-1.304;2023-03-14T11:03:35;7.13;;;1.33;;
73816;SDS011;62146;53.232;-1.304;2023-03-14T11:06:08;8.27;;;1.48;;
73816;SDS011;62146;53.232;-1.304;2023-03-14T11:11:19;10.50;;;1.83;;
73816;SDS011;62146;53.232;-1.304;2023-03-14T11:14:50;7.68;;;1.40;;
73816;SDS011;62146;53.232;-1.304;2023-03-14T11:22:27;7.43;;;1.58;;
73816;SDS011;62146;53.232;-1.304;2023-03-14T11:33:04;7.20;;;1.27;;
73816;SDS011;62146;53.232;-1.304;2023-03-14T11:41:19;10.68;;;1.13;;
73816;SDS011;62146;53.232;-1.304;2023-03-14T11:43:54;9.27;;;1.30;;
73816;SDS011;62146;53.232;-1.304;2023-03-14T11:51:50;7.20;;;1.10;;
73816;SDS011;62146;53.232;-1.304;2023-03-14T11:57:16;9.30;;;1.20;;
73816;SDS011;62146;53.232;-1.304;2023-03-14T12:00:27;7.28;;;1.13;;
73816;SDS011;62146;53.232;-1.304;2023-03-14T12:08:22;4.45;;;0.85;;
73816;SDS011;62146;53.232;-1.304;2023-03-14T12:11:09;7.30;;;1.00;;
73816;SDS011;62146;53.232;-1.304;2023-03-14T12:13:40;7.55;;;1.00;;
73816;SDS011;62146;53.232;-1.304;2023-03-14T12:18:47;6.05;;;0.90;;
73816;SDS011;62146;53.232;-1.304;2023-03-14T12:21:13;5.13;;;1.15;;
73816;SDS011;62146;53.232;-1.304;2023-03-14T12:26:17;6.30;;;1.20;;
73816;SDS011;62146;53.232;-1.304;2023-03-14T12:31:36;6.97;;;1.13;;
73816;SDS011;62146;53.232;-1.304;2023-03-14T12:39:20;4.40;;;0.85;;
73816;SDS011;62146;53.232;-1.304;2023-03-14T12:47:52;5.80;;;1.35;;
73816;SDS011;62146;53.232;-1.304;2023-03-14T12:50:24;3.83;;;0.90;;
73816;SDS011;62146;53.232;-1.304;2023-03-14T12:56:06;3.30;;;0.98;;
73816;SDS011;62146;53.232;-1.304;2023-03-14T12:58:35;4.80;;;0.93;;
73816;SDS011;62146;53.232;-1.304;2023-03-14T13:01:06;4.45;;;1.10;;
73816;SDS011;62146;53.232;-1.304;2023-03-14T13:03:45;4.60;;;1.30;;
73816;SDS011;62146;53.232;-1.304;2023-03-14T13:06:12;4.68;;;1.00;;
73816;SDS011;62146;53.232;-1.304;2023-03-14T13:09:36;3.38;;;0.98;;
73816;SDS011;62146;53.232;-1.304;2023-03-14T13:12:07;6.25;;;1.20;;
73816;SDS011;62146;53.232;-1.304;2023-03-14T13:14:40;3.75;;;0.90;;
73816;SDS011;62146;53.232;-1.304;2023-03-14T13:17:10;4.53;;;1.00;;
73816;SDS011;62146;53.232;-1.304;2023-03-14T13:19:59;3.25;;;0.80;;
73816;SDS011;62146;53.232;-1.304;2023-03-14T13:22:31;2.63;;;0.70;;
73816;SDS011;62146;53.232;-1.304;2023-03-14T13:25:04;2.83;;;0.80;;
73816;SDS011;62146;53.232;-1.304;2023-03-14T13:27:33;4.70;;;0.80;;
73816;SDS011;62146;53.232;-1.304;2023-03-14T13:32:49;3.60;;;0.70;;
73816;SDS011;62146;53.232;-1.304;2023-03-14T13:35:22;4.28;;;0.82;;
73816;SDS011;62146;53.232;-1.304;2023-03-14T13:37:56;3.88;;;0.70;;
73816;SDS011;62146;53.232;-1.304;2023-03-14T13:40:43;4.15;;;0.90;;
73816;SDS011;62146;53.232;-1.304;2023-03-14T13:43:13;4.47;;;0.70;;
73816;SDS011;62146;53.232;-1.304;2023-03-14T13:48:25;3.20;;;0.70;;
73816;SDS011;62146;53.232;-1.304;2023-03-14T13:50:58;3.60;;;0.60;;
73816;SDS011;62146;53.232;-1.304;2023-03-14T13:53:27;4.45;;;0.80;;
73816;SDS011;62146;53.232;-1.304;2023-03-14T13:55:55;1.80;;;0.43;;
73816;SDS011;62146;53.232;-1.304;2023-03-14T13:58:24;2.83;;;0.60;;
73816;SDS011;62146;53.232;-1.304;2023-03-14T14:01:02;2.75;;;0.70;;
73816;SDS011;62146;53.232;-1.304;2023-03-14T14:03:34;2.88;;;0.70;;
73816;SDS011;62146;53.232;-1.304;2023-03-14T14:06:06;1.83;;;0.50;;
73816;SDS011;62146;53.232;-1.304;2023-03-14T14:08:42;3.00;;;0.60;;
73816;SDS011;62146;53.232;-1.304;2023-03-14T14:11:10;5.20;;;0.80;;
73816;SDS011;62146;53.232;-1.304;2023-03-14T14:13:53;4.30;;;0.80;;
73816;SDS011;62146;53.232;-1.304;2023-03-14T14:16:22;3.03;;;0.57;;
73816;SDS011;62146;53.232;-1.304;2023-03-14T14:18:53;2.65;;;0.68;;
73816;SDS011;62146;53.232;-1.304;2023-03-14T14:21:22;4.00;;;0.93;;
73816;SDS011;62146;53.232;-1.304;2023-03-14T14:23:50;3.92;;;0.90;;
73816;SDS011;62146;53.232;-1.304;2023-03-14T14:26:18;4.75;;;0.77;;
73816;SDS011;62146;53.232;-1.304;2023-03-14T14:28:46;2.72;;;0.80;;
73816;SDS011;62146;53.232;-1.304;2023-03-14T14:31:19;2.50;;;0.70;;
73816;SDS011;62146;53.232;-1.304;2023-03-14T14:33:55;3.50;;;0.60;;
73816;SDS011;62146;53.232;-1.304;2023-03-14T14:41:37;3.75;;;0.80;;
73816;SDS011;62146;53.232;-1.304;2023-03-14T14:44:10;4.28;;;1.10;;
73816;SDS011;62146;53.232;-1.304;2023-03-14T14:46:38;6.37;;;1.20;;
73816;SDS011;62146;53.232;-1.304;2023-03-14T14:49:15;4.95;;;1.25;;
73816;SDS011;62146;53.232;-1.304;2023-03-14T14:51:48;4.95;;;1.10;;
73816;SDS011;62146;53.232;-1.304;2023-03-14T14:54:18;3.85;;;0.88;;
73816;SDS011;62146;53.232;-1.304;2023-03-14T14:57:01;4.85;;;0.95;;
73816;SDS011;62146;53.232;-1.304;2023-03-14T14:59:30;4.40;;;1.00;;
73816;SDS011;62146;53.232;-1.304;2023-03-14T15:01:59;3.97;;;1.02;;
73816;SDS011;62146;53.232;-1.304;2023-03-14T15:04:31;4.10;;;1.02;;
73816;SDS011;62146;53.232;-1.304;2023-03-14T15:06:57;4.00;;;0.95;;
73816;SDS011;62146;53.232;-1.304;2023-03-14T15:09:24;3.58;;;0.90;;
73816;SDS011;62146;53.232;-1.304;2023-03-14T15:11:51;6.90;;;0.97;;
73816;SDS011;62146;53.232;-1.304;2023-03-14T15:14:17;3.78;;;1.00;;
73816;SDS011;62146;53.232;-1.304;2023-03-14T15:16:44;6.40;;;1.38;;
73816;SDS011;62146;53.232;-1.304;2023-03-14T15:19:21;6.07;;;1.10;;
73816;SDS011;62146;53.232;-1.304;2023-03-14T15:21:53;5.63;;;1.38;;
73816;SDS011;62146;53.232;-1.304;2023-03-14T15:24:20;5.10;;;1.00;;
73816;SDS011;62146;53.232;-1.304;2023-03-14T15:26:48;6.10;;;1.33;;
73816;SDS011;62146;53.232;-1.304;2023-03-14T15:29:14;6.32;;;1.38;;
73816;SDS011;62146;53.232;-1.304;2023-03-14T15:31:42;6.10;;;1.45;;
73816;SDS011;62146;53.232;-1.304;2023-03-14T15:34:10;5.63;;;1.10;;
73816;SDS011;62146;53.232;-1.304;2023-03-14T15:36:37;8.03;;;1.50;;
73816;SDS011;62146;53.232;-1.304;2023-03-14T15:39:05;4.05;;;0.98;;
73816;SDS011;62146;53.232;-1.304;2023-03-14T15:41:32;6.55;;;1.15;;
73816;SDS011;62146;53.232;-1.304;2023-03-14T15:43:59;3.95;;;0.90;;
73816;SDS011;62146;53.232;-1.304;2023-03-14T15:46:26;2.95;;;0.82;;
73816;SDS011;62146;53.232;-1.304;2023-03-14T15:48:55;4.63;;;0.90;;
73816;SDS011;62146;53.232;-1.304;2023-03-14T15:51:22;2.28;;;0.82;;
73816;SDS011;62146;53.232;-1.304;2023-03-14T15:53:49;3.42;;;0.85;;
73816;SDS011;62146;53.232;-1.304;2023-03-14T15:56:17;4.57;;;0.80;;
73816;SDS011;62146;53.232;-1.304;2023-03-14T15:58:45;4.85;;;1.00;;
73816;SDS011;62146;53.232;-1.304;2023-03-14T16:01:15;6.13;;;1.00;;
73816;SDS011;62146;53.232;-1.304;2023-03-14T16:03:43;3.80;;;0.98;;
73816;SDS011;62146;53.232;-1.304;2023-03-14T16:06:11;5.93;;;1.08;;